Shrewsbury, New Jersey
Current Conditions -  °F | °C
As of 11:15 PM on Sunday 25 Jan 2015 (Local Time) from KBLM Reporting Station
Overcast Overcast  
Wind Chill: 27°   Ceiling: 3100
Heat Index: 34°   Visibility: 10mi
Dew Point: 10°   Wind: 8mph
Humidity: 38%   Direction: 10°N
Pressure: 29.97"   Gusts: NA
Location:  40.33°N, 74.06°W
Report Text: KBLM 260415Z AUTO 01007KT 10SM BKN031 OVC039 01/M12 A2997 RMK AO1
Loading
Personal Weather Stations






























Interactive Weather Map New forecast layout! Learn more

10-Day Weather Forecast

Advertisements
Track Severe Weather on mobile